sensor_id;sensor_type;location;lat;lon;timestamp;pressure;altitude;pressure_sealevel;temperature;humidity
9277;BME280;4676;42.678;23.244;2023-05-01T00:00:34;94072.09;;;10.71;100.00
9277;BME280;4676;42.678;23.244;2023-05-01T00:03:02;94051.19;;;10.66;100.00
9277;BME280;4676;42.678;23.244;2023-05-01T00:05:28;94071.81;;;10.77;100.00
9277;BME280;4676;42.678;23.244;2023-05-01T00:07:55;94060.63;;;10.82;100.00
9277;BME280;4676;42.678;23.244;2023-05-01T00:10:22;94059.28;;;10.74;100.00
9277;BME280;4676;42.678;23.244;2023-05-01T00:12:49;94061.34;;;10.66;100.00
9277;BME280;4676;42.678;23.244;2023-05-01T00:15:16;94065.63;;;10.64;100.00
9277;BME280;4676;42.678;23.244;2023-05-01T00:17:44;94068.22;;;10.62;100.00
9277;BME280;4676;42.678;23.244;2023-05-01T00:20:11;94072.53;;;10.60;100.00
9277;BME280;4676;42.678;23.244;2023-05-01T00:22:38;94074.47;;;10.53;100.00
9277;BME280;4676;42.678;23.244;2023-05-01T00:25:05;94074.66;;;10.49;100.00
9277;BME280;4676;42.678;23.244;2023-05-01T00:27:32;94074.72;;;10.27;100.00
9277;BME280;4676;42.678;23.244;2023-05-01T00:29:59;94073.06;;;10.26;100.00
9277;BME280;4676;42.678;23.244;2023-05-01T00:32:26;94067.03;;;10.29;100.00
9277;BME280;4676;42.678;23.244;2023-05-01T00:34:54;94069.94;;;10.20;100.00
9277;BME280;4676;42.678;23.244;2023-05-01T00:37:22;94076.03;;;10.14;100.00
9277;BME280;4676;42.678;23.244;2023-05-01T00:39:48;94075.38;;;10.09;100.00
9277;BME280;4676;42.678;23.244;2023-05-01T00:42:15;94076.38;;;10.05;100.00
9277;BME280;4676;42.678;23.244;2023-05-01T00:44:42;94081.69;;;9.99;100.00
9277;BME280;4676;42.678;23.244;2023-05-01T00:47:08;94082.41;;;10.02;100.00
9277;BME280;4676;42.678;23.244;2023-05-01T00:49:36;94080.03;;;9.98;100.00
9277;BME280;4676;42.678;23.244;2023-05-01T00:52:04;94083.66;;;9.91;100.00
9277;BME280;4676;42.678;23.244;2023-05-01T00:54:31;94084.03;;;10.03;100.00
9277;BME280;4676;42.678;23.244;2023-05-01T00:56:58;94085.84;;;10.00;100.00
9277;BME280;4676;42.678;23.244;2023-05-01T00:59:24;94092.94;;;9.92;100.00
9277;BME280;4676;42.678;23.244;2023-05-01T01:01:51;94094.03;;;9.85;100.00
9277;BME280;4676;42.678;23.244;2023-05-01T01:04:18;94097.59;;;9.79;100.00
9277;BME280;4676;42.678;23.244;2023-05-01T01:06:51;94098.94;;;9.66;100.00
9277;BME280;4676;42.678;23.244;2023-05-01T01:09:29;94097.41;;;9.62;100.00
9277;BME280;4676;42.678;23.244;2023-05-01T01:12:05;94097.25;;;9.67;100.00
9277;BME280;4676;42.678;23.244;2023-05-01T01:14:39;94087.53;;;9.54;100.00
9277;BME280;4676;42.678;23.244;2023-05-01T01:17:13;94099.16;;;9.60;100.00
9277;BME280;4676;42.678;23.244;2023-05-01T01:20:13;94096.94;;;9.51;100.00
9277;BME280;4676;42.678;23.244;2023-05-01T01:22:46;94098.59;;;9.52;100.00
9277;BME280;4676;42.678;23.244;2023-05-01T01:25:45;94097.19;;;9.45;100.00
9277;BME280;4676;42.678;23.244;2023-05-01T01:28:38;94102.38;;;9.40;100.00
9277;BME280;4676;42.678;23.244;2023-05-01T01:31:19;94103.22;;;9.41;100.00
9277;BME280;4676;42.678;23.244;2023-05-01T01:33:58;94104.81;;;9.43;100.00
9277;BME280;4676;42.678;23.244;2023-05-01T01:36:38;94101.19;;;9.50;100.00
9277;BME280;4676;42.678;23.244;2023-05-01T01:39:15;94105.53;;;9.47;100.00
9277;BME280;4676;42.678;23.244;2023-05-01T01:41:50;94104.88;;;9.42;100.00
9277;BME280;4676;42.678;23.244;2023-05-01T01:44:22;94093.56;;;9.29;100.00
9277;BME280;4676;42.678;23.244;2023-05-01T01:46:53;94111.56;;;9.43;100.00
9277;BME280;4676;42.678;23.244;2023-05-01T01:49:24;94107.28;;;9.45;100.00
9277;BME280;4676;42.678;23.244;2023-05-01T01:51:52;94111.19;;;9.53;100.00
9277;BME280;4676;42.678;23.244;2023-05-01T01:54:25;94103.78;;;9.49;100.00
9277;BME280;4676;42.678;23.244;2023-05-01T01:56:55;94100.47;;;9.47;100.00
9277;BME280;4676;42.678;23.244;2023-05-01T01:59:29;94103.22;;;9.41;100.00
9277;BME280;4676;42.678;23.244;2023-05-01T02:01:57;94099.94;;;9.39;100.00
9277;BME280;4676;42.678;23.244;2023-05-01T02:04:26;94097.22;;;9.43;100.00
9277;BME280;4676;42.678;23.244;2023-05-01T02:06:54;94076.59;;;9.31;100.00
9277;BME280;4676;42.678;23.244;2023-05-01T02:09:22;94099.75;;;9.43;100.00
9277;BME280;4676;42.678;23.244;2023-05-01T02:11:52;94087.31;;;9.37;100.00
9277;BME280;4676;42.678;23.244;2023-05-01T02:14:20;94101.41;;;9.44;100.00
9277;BME280;4676;42.678;23.244;2023-05-01T02:16:49;94088.03;;;9.41;100.00
9277;BME280;4676;42.678;23.244;2023-05-01T02:19:16;94087.19;;;9.42;100.00
9277;BME280;4676;42.678;23.244;2023-05-01T02:21:47;94096.50;;;9.40;100.00
9277;BME280;4676;42.678;23.244;2023-05-01T02:24:15;94071.44;;;9.34;100.00
9277;BME280;4676;42.678;23.244;2023-05-01T02:26:49;94087.00;;;9.46;100.00
9277;BME280;4676;42.678;23.244;2023-05-01T02:29:17;94086.22;;;9.44;100.00
9277;BME280;4676;42.678;23.244;2023-05-01T02:31:43;94089.44;;;9.49;100.00
9277;BME280;4676;42.678;23.244;2023-05-01T02:34:10;94097.41;;;9.62;100.00
9277;BME280;4676;42.678;23.244;2023-05-01T02:36:37;94091.25;;;9.46;100.00
9277;BME280;4676;42.678;23.244;2023-05-01T02:39:05;94085.84;;;9.32;100.00
9277;BME280;4676;42.678;23.244;2023-05-01T02:41:34;94085.91;;;9.30;100.00
9277;BME280;4676;42.678;23.244;2023-05-01T02:44:02;94083.44;;;9.29;100.00
9277;BME280;4676;42.678;23.244;2023-05-01T02:46:30;94088.66;;;9.24;100.00
9277;BME280;4676;42.678;23.244;2023-05-01T02:49:00;94103.75;;;9.26;100.00
9277;BME280;4676;42.678;23.244;2023-05-01T02:51:28;94102.38;;;9.17;100.00
9277;BME280;4676;42.678;23.244;2023-05-01T02:53:56;94109.00;;;9.21;100.00
9277;BME280;4676;42.678;23.244;2023-05-01T02:56:25;94118.41;;;9.16;100.00
9277;BME280;4676;42.678;23.244;2023-05-01T02:58:53;94102.63;;;9.10;100.00
9277;BME280;4676;42.678;23.244;2023-05-01T03:01:19;94101.91;;;9.06;100.00
9277;BME280;4676;42.678;23.244;2023-05-01T03:03:46;94098.72;;;9.01;100.00
9277;BME280;4676;42.678;23.244;2023-05-01T03:06:13;94100.72;;;8.91;100.00
9277;BME280;4676;42.678;23.244;2023-05-01T03:08:40;94104.41;;;8.83;100.00
9277;BME280;4676;42.678;23.244;2023-05-01T03:11:07;94105.88;;;8.88;100.00
9277;BME280;4676;42.678;23.244;2023-05-01T03:13:35;94110.47;;;8.77;100.00
9277;BME280;4676;42.678;23.244;2023-05-01T03:16:02;94105.53;;;8.74;100.00
9277;BME280;4676;42.678;23.244;2023-05-01T03:18:29;94100.59;;;8.70;100.00
9277;BME280;4676;42.678;23.244;2023-05-01T03:20:56;94099.06;;;8.66;100.00
9277;BME280;4676;42.678;23.244;2023-05-01T03:23:23;94105.41;;;8.77;100.00
9277;BME280;4676;42.678;23.244;2023-05-01T03:25:50;94104.75;;;8.72;100.00
9277;BME280;4676;42.678;23.244;2023-05-01T03:28:16;94103.81;;;8.75;100.00
9277;BME280;4676;42.678;23.244;2023-05-01T03:30:46;94106.34;;;8.75;100.00
9277;BME280;4676;42.678;23.244;2023-05-01T03:33:12;94060.47;;;8.36;100.00
9277;BME280;4676;42.678;23.244;2023-05-01T03:35:39;94113.25;;;8.70;100.00
9277;BME280;4676;42.678;23.244;2023-05-01T03:38:06;94109.81;;;8.72;100.00
9277;BME280;4676;42.678;23.244;2023-05-01T03:40:33;94113.25;;;8.70;100.00
9277;BME280;4676;42.678;23.244;2023-05-01T03:42:59;94123.41;;;8.68;100.00
9277;BME280;4676;42.678;23.244;2023-05-01T03:45:26;94129.47;;;8.63;100.00
9277;BME280;4676;42.678;23.244;2023-05-01T03:47:54;94127.19;;;8.55;100.00
9277;BME280;4676;42.678;23.244;2023-05-01T03:50:21;94123.66;;;8.61;100.00
9277;BME280;4676;42.678;23.244;2023-05-01T03:52:48;94141.19;;;8.65;100.00
9277;BME280;4676;42.678;23.244;2023-05-01T03:55:14;94151.47;;;8.59;100.00
9277;BME280;4676;42.678;23.244;2023-05-01T03:57:41;94147.31;;;8.58;100.00
9277;BME280;4676;42.678;23.244;2023-05-01T04:00:09;94149.84;;;8.58;100.00
9277;BME280;4676;42.678;23.244;2023-05-01T04:02:36;94151.81;;;8.75;100.00
9277;BME280;4676;42.678;23.244;2023-05-01T04:05:05;94161.19;;;8.71;100.00
9277;BME280;4676;42.678;23.244;2023-05-01T04:07:31;94158.56;;;8.74;100.00
9277;BME280;4676;42.678;23.244;2023-05-01T04:09:58;94154.59;;;8.67;100.00
9277;BME280;4676;42.678;23.244;2023-05-01T04:12:25;94103.41;;;8.36;100.00
9277;BME280;4676;42.678;23.244;2023-05-01T04:14:51;94168.13;;;8.91;100.00
9277;BME280;4676;42.678;23.244;2023-05-01T04:17:18;94157.19;;;8.90;100.00
9277;BME280;4676;42.678;23.244;2023-05-01T04:19:45;94155.16;;;9.01;100.00
9277;BME280;4676;42.678;23.244;2023-05-01T04:22:13;94164.97;;;9.11;100.00
9277;BME280;4676;42.678;23.244;2023-05-01T04:24:40;94171.72;;;9.10;100.00
9277;BME280;4676;42.678;23.244;2023-05-01T04:27:07;94159.59;;;9.20;100.00
9277;BME280;4676;42.678;23.244;2023-05-01T04:29:34;94158.16;;;9.37;100.00
9277;BME280;4676;42.678;23.244;2023-05-01T04:32:00;94149.72;;;9.37;100.00
9277;BME280;4676;42.678;23.244;2023-05-01T04:34:27;94149.69;;;9.62;100.00
9277;BME280;4676;42.678;23.244;2023-05-01T04:36:54;94149.19;;;9.75;100.00
9277;BME280;4676;42.678;23.244;2023-05-01T04:39:23;94152.19;;;9.86;100.00
9277;BME280;4676;42.678;23.244;2023-05-01T04:41:50;94162.03;;;9.94;100.00
9277;BME280;4676;42.678;23.244;2023-05-01T04:44:16;94158.13;;;10.09;100.00
9277;BME280;4676;42.678;23.244;2023-05-01T04:46:43;94158.75;;;10.37;100.00
9277;BME280;4676;42.678;23.244;2023-05-01T04:49:10;94156.53;;;10.51;100.00
9277;BME280;4676;42.678;23.244;2023-05-01T04:51:37;94144.97;;;10.66;100.00
9277;BME280;4676;42.678;23.244;2023-05-01T04:54:03;94164.19;;;10.91;100.00
9277;BME280;4676;42.678;23.244;2023-05-01T04:56:31;94170.63;;;11.00;100.00
9277;BME280;4676;42.678;23.244;2023-05-01T04:58:58;94167.91;;;11.05;100.00
9277;BME280;4676;42.678;23.244;2023-05-01T05:01:25;94160.66;;;11.16;100.00
9277;BME280;4676;42.678;23.244;2023-05-01T05:03:52;94165.28;;;11.26;100.00
9277;BME280;4676;42.678;23.244;2023-05-01T05:06:19;94170.69;;;11.39;100.00
9277;BME280;4676;42.678;23.244;2023-05-01T05:08:45;94166.00;;;11.50;100.00
9277;BME280;4676;42.678;23.244;2023-05-01T05:11:16;94166.28;;;11.63;100.00
9277;BME280;4676;42.678;23.244;2023-05-01T05:13:44;94172.63;;;11.73;100.00
9277;BME280;4676;42.678;23.244;2023-05-01T05:16:11;94172.78;;;11.68;100.00
9277;BME280;4676;42.678;23.244;2023-05-01T05:18:38;94181.56;;;11.61;100.00
9277;BME280;4676;42.678;23.244;2023-05-01T05:21:05;94191.09;;;11.56;100.00
9277;BME280;4676;42.678;23.244;2023-05-01T05:23:33;94186.91;;;11.55;100.00
9277;BME280;4676;42.678;23.244;2023-05-01T05:26:00;94194.06;;;11.66;100.00
9277;BME280;4676;42.678;23.244;2023-05-01T05:28:27;94200.44;;;11.76;100.00
9277;BME280;4676;42.678;23.244;2023-05-01T05:30:56;94202.38;;;11.69;100.00
9277;BME280;4676;42.678;23.244;2023-05-01T05:33:22;94203.22;;;11.49;100.00
9277;BME280;4676;42.678;23.244;2023-05-01T05:35:49;94152.34;;;11.12;100.00
9277;BME280;4676;42.678;23.244;2023-05-01T05:38:16;94204.41;;;11.61;100.00
9277;BME280;4676;42.678;23.244;2023-05-01T05:40:43;94205.13;;;11.85;100.00
9277;BME280;4676;42.678;23.244;2023-05-01T05:43:10;94207.75;;;12.02;100.00
9277;BME280;4676;42.678;23.244;2023-05-01T05:45:36;94210.44;;;12.18;100.00
9277;BME280;4676;42.678;23.244;2023-05-01T05:48:05;94210.53;;;12.35;100.00
9277;BME280;4676;42.678;23.244;2023-05-01T05:52:59;94209.63;;;12.55;100.00
9277;BME280;4676;42.678;23.244;2023-05-01T05:55:25;94207.81;;;12.75;100.00
9277;BME280;4676;42.678;23.244;2023-05-01T05:57:52;94205.91;;;12.97;100.00
9277;BME280;4676;42.678;23.244;2023-05-01T06:00:19;94213.59;;;12.96;100.00
9277;BME280;4676;42.678;23.244;2023-05-01T06:02:45;94212.56;;;13.00;100.00
9277;BME280;4676;42.678;23.244;2023-05-01T06:05:14;94214.63;;;13.11;100.00
9277;BME280;4676;42.678;23.244;2023-05-01T06:07:41;94214.44;;;13.15;100.00
9277;BME280;4676;42.678;23.244;2023-05-01T06:10:08;94220.25;;;13.34;100.00
9277;BME280;4676;42.678;23.244;2023-05-01T06:12:35;94218.22;;;13.41;100.00
9277;BME280;4676;42.678;23.244;2023-05-01T06:15:04;94219.88;;;13.59;100.00
9277;BME280;4676;42.678;23.244;2023-05-01T06:17:30;94219.78;;;13.78;100.00
9277;BME280;4676;42.678;23.244;2023-05-01T06:19:58;94217.50;;;13.56;100.00
9277;BME280;4676;42.678;23.244;2023-05-01T06:22:27;94220.53;;;13.80;100.00
9277;BME280;4676;42.678;23.244;2023-05-01T06:24:54;94224.22;;;13.74;100.00
9277;BME280;4676;42.678;23.244;2023-05-01T06:27:20;94219.69;;;13.79;100.00
9277;BME280;4676;42.678;23.244;2023-05-01T06:29:47;94215.41;;;13.97;100.00
9277;BME280;4676;42.678;23.244;2023-05-01T06:32:15;94215.56;;;13.94;100.00
9277;BME280;4676;42.678;23.244;2023-05-01T06:34:42;94217.56;;;14.05;100.00
9277;BME280;4676;42.678;23.244;2023-05-01T06:37:09;94219.47;;;14.34;100.00
9277;BME280;4676;42.678;23.244;2023-05-01T06:39:37;94200.19;;;14.28;100.00
9277;BME280;4676;42.678;23.244;2023-05-01T06:42:03;94220.06;;;14.55;100.00
9277;BME280;4676;42.678;23.244;2023-05-01T06:44:32;94216.28;;;14.46;100.00
9277;BME280;4676;42.678;23.244;2023-05-01T06:46:58;94224.16;;;14.57;100.00
9277;BME280;4676;42.678;23.244;2023-05-01T06:49:26;94227.19;;;14.64;100.00
9277;BME280;4676;42.678;23.244;2023-05-01T06:51:52;94222.13;;;14.48;100.00
9277;BME280;4676;42.678;23.244;2023-05-01T06:54:19;94229.16;;;14.43;100.00
9277;BME280;4676;42.678;23.244;2023-05-01T06:56:47;94203.75;;;14.57;100.00
9277;BME280;4676;42.678;23.244;2023-05-01T06:59:14;94230.59;;;14.64;100.00
9277;BME280;4676;42.678;23.244;2023-05-01T07:01:41;94231.97;;;14.54;100.00
9277;BME280;4676;42.678;23.244;2023-05-01T07:04:07;94228.44;;;14.72;100.00
9277;BME280;4676;42.678;23.244;2023-05-01T07:06:34;94233.38;;;14.75;100.00
9277;BME280;4676;42.678;23.244;2023-05-01T07:09:02;94236.66;;;14.93;100.00
9277;BME280;4676;42.678;23.244;2023-05-01T07:11:29;94226.94;;;14.99;100.00
9277;BME280;4676;42.678;23.244;2023-05-01T07:13:57;94218.44;;;15.15;92.09
9277;BME280;4676;42.678;23.244;2023-05-01T07:16:24;94233.81;;;15.44;91.83
9277;BME280;4676;42.678;23.244;2023-05-01T07:18:51;94236.91;;;15.65;89.91
9277;BME280;4676;42.678;23.244;2023-05-01T07:21:18;94241.00;;;15.68;88.21
9277;BME280;4676;42.678;23.244;2023-05-01T07:23:44;94247.19;;;15.64;88.38
9277;BME280;4676;42.678;23.244;2023-05-01T07:26:11;94244.63;;;15.64;87.08
9277;BME280;4676;42.678;23.244;2023-05-01T07:28:38;94229.91;;;15.83;90.23
9277;BME280;4676;42.678;23.244;2023-05-01T07:31:08;94242.88;;;16.08;83.16
9277;BME280;4676;42.678;23.244;2023-05-01T07:33:35;94238.31;;;16.13;92.12
9277;BME280;4676;42.678;23.244;2023-05-01T07:36:02;94249.56;;;16.11;85.48
9277;BME280;4676;42.678;23.244;2023-05-01T07:38:29;94232.38;;;16.13;81.90
9277;BME280;4676;42.678;23.244;2023-05-01T07:40:56;94247.34;;;16.05;79.56
9277;BME280;4676;42.678;23.244;2023-05-01T07:43:23;94243.53;;;16.26;85.61
9277;BME280;4676;42.678;23.244;2023-05-01T07:45:53;94240.50;;;16.19;78.78
9277;BME280;4676;42.678;23.244;2023-05-01T07:48:21;94233.59;;;16.07;81.96
9277;BME280;4676;42.678;23.244;2023-05-01T07:50:48;94238.34;;;16.27;81.61
9277;BME280;4676;42.678;23.244;2023-05-01T07:53:15;94245.28;;;16.54;80.75
9277;BME280;4676;42.678;23.244;2023-05-01T07:55:41;94237.94;;;16.76;79.10
9277;BME280;4676;42.678;23.244;2023-05-01T07:58:08;94236.50;;;17.13;79.02
9277;BME280;4676;42.678;23.244;2023-05-01T08:00:35;94239.69;;;17.16;75.48
9277;BME280;4676;42.678;23.244;2023-05-01T08:03:02;94239.28;;;16.95;77.49
9277;BME280;4676;42.678;23.244;2023-05-01T08:05:30;94244.22;;;16.98;76.24
9277;BME280;4676;42.678;23.244;2023-05-01T08:07:57;94238.19;;;17.39;75.56
9277;BME280;4676;42.678;23.244;2023-05-01T08:10:23;94242.13;;;17.44;70.92
9277;BME280;4676;42.678;23.244;2023-05-01T08:12:50;94244.56;;;17.33;67.56
9277;BME280;4676;42.678;23.244;2023-05-01T08:15:17;94240.59;;;16.88;69.71
9277;BME280;4676;42.678;23.244;2023-05-01T08:17:45;94241.19;;;17.06;71.38
9277;BME280;4676;42.678;23.244;2023-05-01T08:20:12;94243.94;;;16.89;65.94
9277;BME280;4676;42.678;23.244;2023-05-01T08:22:40;94239.72;;;17.02;67.03
9277;BME280;4676;42.678;23.244;2023-05-01T08:25:07;94230.50;;;17.26;67.48
9277;BME280;4676;42.678;23.244;2023-05-01T08:27:34;94244.13;;;17.27;61.82
9277;BME280;4676;42.678;23.244;2023-05-01T08:30:01;94238.31;;;17.37;63.78
9277;BME280;4676;42.678;23.244;2023-05-01T08:32:27;94230.44;;;17.40;62.78
9277;BME280;4676;42.678;23.244;2023-05-01T08:34:54;94240.00;;;17.51;59.90
9277;BME280;4676;42.678;23.244;2023-05-01T08:37:21;94238.94;;;17.41;60.63
9277;BME280;4676;42.678;23.244;2023-05-01T08:39:49;94244.06;;;17.41;60.69
9277;BME280;4676;42.678;23.244;2023-05-01T08:42:16;94241.31;;;17.44;62.13
9277;BME280;4676;42.678;23.244;2023-05-01T08:44:43;94234.66;;;17.54;61.63
9277;BME280;4676;42.678;23.244;2023-05-01T08:47:15;94235.13;;;17.61;62.77
9277;BME280;4676;42.678;23.244;2023-05-01T08:49:44;94230.44;;;17.80;61.85
9277;BME280;4676;42.678;23.244;2023-05-01T08:52:12;94236.91;;;18.11;63.08
9277;BME280;4676;42.678;23.244;2023-05-01T08:54:41;94225.63;;;18.38;61.52
9277;BME280;4676;42.678;23.244;2023-05-01T08:57:10;94232.69;;;18.35;58.23
9277;BME280;4676;42.678;23.244;2023-05-01T08:59:38;94217.09;;;18.13;58.38
9277;BME280;4676;42.678;23.244;2023-05-01T09:02:06;94229.19;;;18.48;58.95
9277;BME280;4676;42.678;23.244;2023-05-01T09:04:34;94223.13;;;18.75;60.08
9277;BME280;4676;42.678;23.244;2023-05-01T09:07:02;94232.59;;;18.98;56.33
9277;BME280;4676;42.678;23.244;2023-05-01T09:09:29;94229.22;;;19.21;55.34
9277;BME280;4676;42.678;23.244;2023-05-01T09:11:59;94226.31;;;19.02;55.12
9277;BME280;4676;42.678;23.244;2023-05-01T09:14:30;94216.56;;;18.58;56.05
9277;BME280;4676;42.678;23.244;2023-05-01T09:16:57;94211.44;;;18.45;54.83
9277;BME280;4676;42.678;23.244;2023-05-01T09:19:25;94229.41;;;18.71;55.37
9277;BME280;4676;42.678;23.244;2023-05-01T09:21:52;94228.19;;;18.64;55.09
9277;BME280;4676;42.678;23.244;2023-05-01T09:24:21;94222.41;;;18.47;56.34
9277;BME280;4676;42.678;23.244;2023-05-01T09:26:49;94216.38;;;18.48;55.87
9277;BME280;4676;42.678;23.244;2023-05-01T09:32:15;94221.00;;;18.43;55.50
9277;BME280;4676;42.678;23.244;2023-05-01T09:34:44;94209.31;;;18.02;55.06
9277;BME280;4676;42.678;23.244;2023-05-01T09:37:12;94224.59;;;18.28;54.61
9277;BME280;4676;42.678;23.244;2023-05-01T09:40:02;94226.03;;;18.32;53.79
9277;BME280;4676;42.678;23.244;2023-05-01T09:42:30;94219.75;;;18.49;53.72
9277;BME280;4676;42.678;23.244;2023-05-01T09:44:57;94226.94;;;18.69;53.30
9277;BME280;4676;42.678;23.244;2023-05-01T09:47:25;94233.75;;;18.94;51.39
9277;BME280;4676;42.678;23.244;2023-05-01T09:49:54;94230.31;;;19.06;52.35
9277;BME280;4676;42.678;23.244;2023-05-01T09:52:22;94226.97;;;18.93;50.04
9277;BME280;4676;42.678;23.244;2023-05-01T09:54:49;94224.69;;;18.27;49.74
9277;BME280;4676;42.678;23.244;2023-05-01T09:57:16;94225.88;;;18.72;55.45
9277;BME280;4676;42.678;23.244;2023-05-01T09:59:42;94217.25;;;18.85;53.90
9277;BME280;4676;42.678;23.244;2023-05-01T10:02:28;94208.97;;;18.93;53.48
9277;BME280;4676;42.678;23.244;2023-05-01T10:04:57;94207.63;;;19.00;54.73
9277;BME280;4676;42.678;23.244;2023-05-01T10:07:24;94214.16;;;19.17;54.84
9277;BME280;4676;42.678;23.244;2023-05-01T10:09:51;94215.28;;;19.13;53.05
9277;BME280;4676;42.678;23.244;2023-05-01T10:12:22;94212.22;;;19.55;57.00
9277;BME280;4676;42.678;23.244;2023-05-01T10:14:51;94219.50;;;19.37;52.62
9277;BME280;4676;42.678;23.244;2023-05-01T10:17:18;94223.75;;;19.26;53.62
9277;BME280;4676;42.678;23.244;2023-05-01T10:19:46;94202.16;;;18.68;53.65
9277;BME280;4676;42.678;23.244;2023-05-01T10:22:13;94203.28;;;18.77;55.46
9277;BME280;4676;42.678;23.244;2023-05-01T10:24:42;94210.84;;;18.91;55.69
9277;BME280;4676;42.678;23.244;2023-05-01T10:27:11;94216.91;;;18.90;55.05
9277;BME280;4676;42.678;23.244;2023-05-01T10:29:39;94204.19;;;18.88;55.94
9277;BME280;4676;42.678;23.244;2023-05-01T10:32:07;94215.22;;;19.02;51.39
9277;BME280;4676;42.678;23.244;2023-05-01T10:34:37;94208.59;;;18.86;52.19
9277;BME280;4676;42.678;23.244;2023-05-01T10:37:11;94203.31;;;19.01;53.27
9277;BME280;4676;42.678;23.244;2023-05-01T10:39:38;94206.69;;;19.25;52.53
9277;BME280;4676;42.678;23.244;2023-05-01T10:42:06;94219.53;;;19.25;50.24
9277;BME280;4676;42.678;23.244;2023-05-01T10:44:35;94201.81;;;19.33;54.05
9277;BME280;4676;42.678;23.244;2023-05-01T10:47:42;94205.25;;;19.68;53.96
9277;BME280;4676;42.678;23.244;2023-05-01T10:50:11;94186.84;;;19.27;55.76
9277;BME280;4676;42.678;23.244;2023-05-01T10:53:18;94213.66;;;19.59;52.51
9277;BME280;4676;42.678;23.244;2023-05-01T10:55:47;94212.78;;;19.48;54.03
9277;BME280;4676;42.678;23.244;2023-05-01T11:01:29;94206.81;;;19.47;54.15
9277;BME280;4676;42.678;23.244;2023-05-01T11:03:58;94201.91;;;19.44;54.25
9277;BME280;4676;42.678;23.244;2023-05-01T11:06:25;94208.00;;;19.30;54.73
9277;BME280;4676;42.678;23.244;2023-05-01T11:08:53;94209.66;;;19.08;52.31
9277;BME280;4676;42.678;23.244;2023-05-01T11:11:45;94211.38;;;18.83;53.87
9277;BME280;4676;42.678;23.244;2023-05-01T11:14:14;94215.75;;;18.94;53.55
9277;BME280;4676;42.678;23.244;2023-05-01T11:16:44;94191.19;;;18.66;51.07
9277;BME280;4676;42.678;23.244;2023-05-01T11:19:44;94223.47;;;18.94;51.80
9277;BME280;4676;42.678;23.244;2023-05-01T11:22:14;94214.31;;;19.26;53.53
9277;BME280;4676;42.678;23.244;2023-05-01T11:24:42;94205.44;;;19.54;50.50
9277;BME280;4676;42.678;23.244;2023-05-01T11:27:13;94191.03;;;19.17;50.70
9277;BME280;4676;42.678;23.244;2023-05-01T11:29:43;94187.78;;;19.02;50.75
9277;BME280;4676;42.678;23.244;2023-05-01T11:32:15;94198.44;;;19.32;49.79
9277;BME280;4676;42.678;23.244;2023-05-01T11:34:43;94208.97;;;19.64;51.78
9277;BME280;4676;42.678;23.244;2023-05-01T11:37:10;94210.31;;;19.81;49.75
9277;BME280;4676;42.678;23.244;2023-05-01T11:39:36;94199.59;;;19.98;49.67
9277;BME280;4676;42.678;23.244;2023-05-01T11:42:08;94211.16;;;19.92;49.47
9277;BME280;4676;42.678;23.244;2023-05-01T11:44:35;94209.84;;;19.76;48.95
9277;BME280;4676;42.678;23.244;2023-05-01T11:47:02;94197.81;;;19.99;50.75
9277;BME280;4676;42.678;23.244;2023-05-01T11:49:31;94196.66;;;20.03;50.68
9277;BME280;4676;42.678;23.244;2023-05-01T11:51:58;94199.97;;;20.27;48.65
9277;BME280;4676;42.678;23.244;2023-05-01T11:54:25;94194.28;;;20.46;48.94
9277;BME280;4676;42.678;23.244;2023-05-01T11:56:59;94197.31;;;20.39;48.60
9277;BME280;4676;42.678;23.244;2023-05-01T11:59:27;94198.94;;;20.52;48.15
9277;BME280;4676;42.678;23.244;2023-05-01T12:01:54;94200.34;;;20.22;49.20
9277;BME280;4676;42.678;23.244;2023-05-01T12:04:23;94194.75;;;20.51;50.18
9277;BME280;4676;42.678;23.244;2023-05-01T12:06:52;94184.94;;;20.99;50.42
9277;BME280;4676;42.678;23.244;2023-05-01T12:09:20;94187.47;;;21.32;49.79
9277;BME280;4676;42.678;23.244;2023-05-01T12:11:48;94195.81;;;21.56;50.68
9277;BME280;4676;42.678;23.244;2023-05-01T12:14:15;94203.25;;;21.70;47.04
9277;BME280;4676;42.678;23.244;2023-05-01T12:16:44;94202.44;;;21.38;47.71
9277;BME280;4676;42.678;23.244;2023-05-01T12:19:12;94198.81;;;21.61;50.14
9277;BME280;4676;42.678;23.244;2023-05-01T12:21:40;94192.69;;;21.94;48.86
9277;BME280;4676;42.678;23.244;2023-05-01T12:24:07;94192.66;;;22.15;46.70
9277;BME280;4676;42.678;23.244;2023-05-01T12:26:34;94192.09;;;22.11;45.97
9277;BME280;4676;42.678;23.244;2023-05-01T12:29:03;94192.81;;;21.40;45.09
9277;BME280;4676;42.678;23.244;2023-05-01T12:31:31;94194.66;;;21.17;46.33
9277;BME280;4676;42.678;23.244;2023-05-01T12:34:00;94199.78;;;21.28;47.86
9277;BME280;4676;42.678;23.244;2023-05-01T12:36:28;94197.69;;;21.22;46.71
9277;BME280;4676;42.678;23.244;2023-05-01T12:39:00;94198.53;;;21.01;46.84
9277;BME280;4676;42.678;23.244;2023-05-01T12:43:56;94196.66;;;21.03;46.89
9277;BME280;4676;42.678;23.244;2023-05-01T12:46:23;94194.75;;;21.27;45.68
9277;BME280;4676;42.678;23.244;2023-05-01T12:48:49;94208.44;;;21.27;45.65
9277;BME280;4676;42.678;23.244;2023-05-01T12:51:21;94202.75;;;21.45;47.00
9277;BME280;4676;42.678;23.244;2023-05-01T12:53:48;94196.06;;;21.53;47.01
9277;BME280;4676;42.678;23.244;2023-05-01T12:56:23;94194.78;;;21.68;46.46
9277;BME280;4676;42.678;23.244;2023-05-01T12:58:50;94200.47;;;21.62;45.89
9277;BME280;4676;42.678;23.244;2023-05-01T13:01:24;94200.47;;;21.30;45.34
9277;BME280;4676;42.678;23.244;2023-05-01T13:03:52;94186.19;;;21.26;46.49
9277;BME280;4676;42.678;23.244;2023-05-01T13:06:30;94199.66;;;21.30;44.37
9277;BME280;4676;42.678;23.244;2023-05-01T13:09:06;94210.47;;;21.24;45.38
9277;BME280;4676;42.678;23.244;2023-05-01T13:11:34;94206.13;;;21.24;43.84
9277;BME280;4676;42.678;23.244;2023-05-01T13:14:06;94207.09;;;21.44;46.01
9277;BME280;4676;42.678;23.244;2023-05-01T13:16:33;94209.94;;;21.62;45.24
9277;BME280;4676;42.678;23.244;2023-05-01T13:19:00;94213.63;;;21.80;44.43
9277;BME280;4676;42.678;23.244;2023-05-01T13:21:31;94212.97;;;21.99;43.40
9277;BME280;4676;42.678;23.244;2023-05-01T13:23:59;94209.97;;;21.82;44.03
9277;BME280;4676;42.678;23.244;2023-05-01T13:26:27;94216.22;;;21.48;44.27